Sparwood, Canada
Current Conditions -  °F | °C
As of 7:00 PM on Wednesday 22 Oct 2014 (Local Time) from CWSW Reporting Station
Rain Showers Rain Showers  
Wind Chill: 43°   Ceiling: 4000
Heat Index: 48°   Visibility: 15mi
Dew Point: 37°   Wind: 12mph
Humidity: 66%   Direction: 170°S
Pressure: 29.83"   Gusts: 18mph
Location:  49.72°N, 114.89°W
Report Text: CWSW 230100Z 17010G16KT 15SM VCSH OVC040 09/03 A2983 RMK SC8 LAST OBS/NEXT 231300Z SLP112 DENSITY ALT 4000FT
Loading
Personal Weather Stations






























Interactive Weather Map
Tropical Storm Tracking
New forecast layout! Learn more

10-Day Weather Forecast

Advertisements
Track Severe Weather on mobile